sensor_id;sensor_type;location;lat;lon;timestamp;pressure;altitude;pressure_sealevel;temperature;humidity
48622;BME280;34421;48.944;9.460;2023-05-16T00:00:48;98179.03;;;11.47;73.09
48622;BME280;34421;48.944;9.460;2023-05-16T00:03:16;98176.81;;;11.44;72.97
48622;BME280;34421;48.944;9.460;2023-05-16T00:05:41;98173.81;;;11.40;73.63
48622;BME280;34421;48.944;9.460;2023-05-16T00:08:06;98170.97;;;11.35;74.07
48622;BME280;34421;48.944;9.460;2023-05-16T00:10:33;98172.91;;;11.28;73.13
48622;BME280;34421;48.944;9.460;2023-05-16T00:12:58;98167.78;;;11.26;73.96
48622;BME280;34421;48.944;9.460;2023-05-16T00:15:25;98171.50;;;11.25;73.42
48622;BME280;34421;48.944;9.460;2023-05-16T00:17:51;98171.13;;;11.22;74.26
48622;BME280;34421;48.944;9.460;2023-05-16T00:20:16;98171.13;;;11.22;74.46
48622;BME280;34421;48.944;9.460;2023-05-16T00:22:47;98177.72;;;11.19;73.76
48622;BME280;34421;48.944;9.460;2023-05-16T00:25:12;98176.97;;;11.12;74.12
48622;BME280;34421;48.944;9.460;2023-05-16T00:27:37;98188.19;;;10.95;75.08
48622;BME280;34421;48.944;9.460;2023-05-16T00:30:03;98182.53;;;10.85;74.73
48622;BME280;34421;48.944;9.460;2023-05-16T00:32:28;98192.25;;;10.80;74.74
48622;BME280;34421;48.944;9.460;2023-05-16T00:34:54;98189.16;;;10.83;75.96
48622;BME280;34421;48.944;9.460;2023-05-16T00:37:19;98190.75;;;10.84;74.55
48622;BME280;34421;48.944;9.460;2023-05-16T00:39:44;98183.81;;;10.83;74.49
48622;BME280;34421;48.944;9.460;2023-05-16T00:42:10;98184.63;;;10.83;74.71
48622;BME280;34421;48.944;9.460;2023-05-16T00:44:35;98179.06;;;10.85;75.63
48622;BME280;34421;48.944;9.460;2023-05-16T00:47:00;98177.44;;;10.84;75.10
48622;BME280;34421;48.944;9.460;2023-05-16T00:49:28;98187.94;;;10.79;74.24
48622;BME280;34421;48.944;9.460;2023-05-16T00:51:54;98177.72;;;10.76;74.29
48622;BME280;34421;48.944;9.460;2023-05-16T00:54:21;98176.91;;;10.75;74.18
48622;BME280;34421;48.944;9.460;2023-05-16T00:56:47;98177.56;;;10.70;74.48
48622;BME280;34421;48.944;9.460;2023-05-16T00:59:13;98179.03;;;10.66;74.82
48622;BME280;34421;48.944;9.460;2023-05-16T01:01:40;98175.31;;;10.67;74.50
48622;BME280;34421;48.944;9.460;2023-05-16T01:04:06;98176.38;;;10.66;74.31
48622;BME280;34421;48.944;9.460;2023-05-16T01:06:32;98172.91;;;10.66;74.87
48622;BME280;34421;48.944;9.460;2023-05-16T01:08:58;98165.09;;;10.64;74.74
48622;BME280;34421;48.944;9.460;2023-05-16T01:11:35;98163.50;;;10.63;74.65
48622;BME280;34421;48.944;9.460;2023-05-16T01:22:46;98173.66;;;10.48;74.85
48622;BME280;34421;48.944;9.460;2023-05-16T01:25:21;98172.44;;;10.44;75.37
48622;BME280;34421;48.944;9.460;2023-05-16T01:27:51;98178.19;;;10.41;74.43
48622;BME280;34421;48.944;9.460;2023-05-16T01:30:17;98179.22;;;10.40;75.34
48622;BME280;34421;48.944;9.460;2023-05-16T01:32:43;98182.72;;;10.40;75.16
48622;BME280;34421;48.944;9.460;2023-05-16T01:35:11;98180.28;;;10.39;75.32
48622;BME280;34421;48.944;9.460;2023-05-16T01:37:49;98175.97;;;10.38;75.48
48622;BME280;34421;48.944;9.460;2023-05-16T01:40:26;98176.56;;;10.40;74.39
48622;BME280;34421;48.944;9.460;2023-05-16T01:42:54;98173.09;;;10.39;74.39
48622;BME280;34421;48.944;9.460;2023-05-16T01:45:31;98181.28;;;10.38;73.65
48622;BME280;34421;48.944;9.460;2023-05-16T01:48:06;98178.06;;;10.36;73.30
48622;BME280;34421;48.944;9.460;2023-05-16T01:50:35;98176.84;;;10.32;73.93
48622;BME280;34421;48.944;9.460;2023-05-16T01:53:06;98183.63;;;10.27;74.56
48622;BME280;34421;48.944;9.460;2023-05-16T01:55:51;98181.38;;;10.24;74.64
48622;BME280;34421;48.944;9.460;2023-05-16T01:58:20;98181.78;;;10.21;74.25
48622;BME280;34421;48.944;9.460;2023-05-16T02:00:46;98183.41;;;10.22;74.56
48622;BME280;34421;48.944;9.460;2023-05-16T02:03:12;98186.31;;;10.21;75.25
48622;BME280;34421;48.944;9.460;2023-05-16T02:05:37;98184.88;;;10.18;74.67
48622;BME280;34421;48.944;9.460;2023-05-16T02:08:03;98187.75;;;10.17;74.86
48622;BME280;34421;48.944;9.460;2023-05-16T02:10:28;98187.97;;;10.15;73.80
48622;BME280;34421;48.944;9.460;2023-05-16T02:12:54;98190.88;;;10.07;73.86
48622;BME280;34421;48.944;9.460;2023-05-16T02:15:20;98191.31;;;10.04;74.22
48622;BME280;34421;48.944;9.460;2023-05-16T02:17:45;98191.75;;;10.01;73.87
48622;BME280;34421;48.944;9.460;2023-05-16T02:20:11;98194.81;;;9.98;74.17
48622;BME280;34421;48.944;9.460;2023-05-16T02:22:37;98196.06;;;9.95;73.91
48622;BME280;34421;48.944;9.460;2023-05-16T02:25:12;98194.22;;;9.96;73.97
48622;BME280;34421;48.944;9.460;2023-05-16T02:27:38;98201.38;;;9.95;74.29
48622;BME280;34421;48.944;9.460;2023-05-16T02:30:03;98195.06;;;9.90;73.96
48622;BME280;34421;48.944;9.460;2023-05-16T02:32:31;98196.53;;;9.86;74.22
48622;BME280;34421;48.944;9.460;2023-05-16T02:34:56;98193.25;;;9.84;74.80
48622;BME280;34421;48.944;9.460;2023-05-16T02:37:21;98189.78;;;9.83;73.88
48622;BME280;34421;48.944;9.460;2023-05-16T02:39:46;98199.00;;;9.80;73.89
48622;BME280;34421;48.944;9.460;2023-05-16T02:42:12;98201.03;;;9.78;73.71
48622;BME280;34421;48.944;9.460;2023-05-16T02:44:37;98192.25;;;9.78;73.80
48622;BME280;34421;48.944;9.460;2023-05-16T02:47:03;98194.53;;;9.74;74.38
48622;BME280;34421;48.944;9.460;2023-05-16T02:49:28;98200.66;;;9.75;73.77
48622;BME280;34421;48.944;9.460;2023-05-16T02:51:53;98197.00;;;9.76;73.93
48622;BME280;34421;48.944;9.460;2023-05-16T02:54:19;98191.03;;;9.80;74.33
48622;BME280;34421;48.944;9.460;2023-05-16T02:56:45;98191.03;;;9.80;74.00
48622;BME280;34421;48.944;9.460;2023-05-16T02:59:10;98187.75;;;9.85;73.93
48622;BME280;34421;48.944;9.460;2023-05-16T03:01:35;98195.06;;;9.90;73.72
48622;BME280;34421;48.944;9.460;2023-05-16T03:04:01;98194.22;;;9.96;73.58
48622;BME280;34421;48.944;9.460;2023-05-16T03:06:26;98199.53;;;10.02;73.36
48622;BME280;34421;48.944;9.460;2023-05-16T03:08:51;98198.06;;;10.07;74.17
48622;BME280;34421;48.944;9.460;2023-05-16T03:11:17;98206.84;;;10.07;74.40
48622;BME280;34421;48.944;9.460;2023-05-16T03:13:44;98206.03;;;10.07;73.89
48622;BME280;34421;48.944;9.460;2023-05-16T03:16:10;98199.47;;;10.09;73.50
48622;BME280;34421;48.944;9.460;2023-05-16T03:18:35;98196.81;;;10.09;73.99
48622;BME280;34421;48.944;9.460;2023-05-16T03:21:01;98190.47;;;10.10;73.80
48622;BME280;34421;48.944;9.460;2023-05-16T03:23:27;98193.13;;;10.10;74.06
48622;BME280;34421;48.944;9.460;2023-05-16T03:25:52;98202.72;;;10.11;73.59
48622;BME280;34421;48.944;9.460;2023-05-16T03:28:18;98204.75;;;10.16;73.96
48622;BME280;34421;48.944;9.460;2023-05-16T03:30:43;98203.28;;;10.20;73.54
48622;BME280;34421;48.944;9.460;2023-05-16T03:33:08;98204.28;;;10.25;74.41
48622;BME280;34421;48.944;9.460;2023-05-16T03:35:35;98202.88;;;10.30;72.98
48622;BME280;34421;48.944;9.460;2023-05-16T03:38:01;98202.81;;;10.36;73.15
48622;BME280;34421;48.944;9.460;2023-05-16T03:40:26;98205.66;;;10.41;73.79
48622;BME280;34421;48.944;9.460;2023-05-16T03:42:51;98202.31;;;10.46;73.26
48622;BME280;34421;48.944;9.460;2023-05-16T03:45:17;98200.28;;;10.48;73.68
48622;BME280;34421;48.944;9.460;2023-05-16T03:47:42;98208.44;;;10.53;73.05
48622;BME280;34421;48.944;9.460;2023-05-16T03:50:08;98198.97;;;10.57;73.42
48622;BME280;34421;48.944;9.460;2023-05-16T03:52:34;98201.81;;;10.62;74.23
48622;BME280;34421;48.944;9.460;2023-05-16T03:54:59;98203.44;;;10.63;74.21
48622;BME280;34421;48.944;9.460;2023-05-16T03:57:26;98199.91;;;10.69;73.59
48622;BME280;34421;48.944;9.460;2023-05-16T03:59:51;98203.53;;;10.75;74.52
48622;BME280;34421;48.944;9.460;2023-05-16T04:02:17;98208.81;;;10.82;73.82
48622;BME280;34421;48.944;9.460;2023-05-16T04:04:42;98210.59;;;10.88;72.92
48622;BME280;34421;48.944;9.460;2023-05-16T04:07:07;98214.84;;;10.95;73.80
48622;BME280;34421;48.944;9.460;2023-05-16T04:09:33;98216.47;;;10.97;72.77
48622;BME280;34421;48.944;9.460;2023-05-16T04:11:58;98223.19;;;10.99;73.91
48622;BME280;34421;48.944;9.460;2023-05-16T04:14:26;98215.94;;;11.06;73.09
48622;BME280;34421;48.944;9.460;2023-05-16T04:16:51;98224.09;;;11.11;73.59
48622;BME280;34421;48.944;9.460;2023-05-16T04:19:16;98221.38;;;11.18;73.06
48622;BME280;34421;48.944;9.460;2023-05-16T04:21:41;98223.16;;;11.24;72.36
48622;BME280;34421;48.944;9.460;2023-05-16T04:24:07;98230.50;;;11.29;72.81
48622;BME280;34421;48.944;9.460;2023-05-16T04:26:32;98226.78;;;11.30;72.32
48622;BME280;34421;48.944;9.460;2023-05-16T04:28:58;98231.69;;;11.33;71.91
48622;BME280;34421;48.944;9.460;2023-05-16T04:31:26;98236.13;;;11.39;71.84
48622;BME280;34421;48.944;9.460;2023-05-16T04:33:51;98235.69;;;11.42;71.63
48622;BME280;34421;48.944;9.460;2023-05-16T04:36:17;98243.41;;;11.50;71.96
48622;BME280;34421;48.944;9.460;2023-05-16T04:38:42;98236.16;;;11.57;71.91
48622;BME280;34421;48.944;9.460;2023-05-16T04:41:08;98232.59;;;11.63;72.37
48622;BME280;34421;48.944;9.460;2023-05-16T04:43:33;98237.03;;;11.70;72.05
48622;BME280;34421;48.944;9.460;2023-05-16T04:45:59;98237.16;;;11.75;71.81
48622;BME280;34421;48.944;9.460;2023-05-16T04:48:24;98234.66;;;11.80;71.77
48622;BME280;34421;48.944;9.460;2023-05-16T04:50:49;98246.09;;;11.87;71.79
48622;BME280;34421;48.944;9.460;2023-05-16T04:53:15;98242.53;;;11.93;72.29
48622;BME280;34421;48.944;9.460;2023-05-16T04:55:40;98241.19;;;12.02;71.43
48622;BME280;34421;48.944;9.460;2023-05-16T04:58:06;98230.31;;;12.16;72.01
48622;BME280;34421;48.944;9.460;2023-05-16T05:00:32;98242.91;;;12.27;71.86
48622;BME280;34421;48.944;9.460;2023-05-16T05:02:57;98245.84;;;12.37;71.46
48622;BME280;34421;48.944;9.460;2023-05-16T05:05:23;98239.00;;;12.41;71.36
48622;BME280;34421;48.944;9.460;2023-05-16T05:07:48;98246.72;;;12.49;71.64
48622;BME280;34421;48.944;9.460;2023-05-16T05:10:13;98248.22;;;12.57;71.69
48622;BME280;34421;48.944;9.460;2023-05-16T05:12:39;98246.50;;;12.63;71.30
48622;BME280;34421;48.944;9.460;2023-05-16T05:15:05;98241.16;;;12.63;71.19
48622;BME280;34421;48.944;9.460;2023-05-16T05:17:31;98241.97;;;12.63;71.18
48622;BME280;34421;48.944;9.460;2023-05-16T05:19:56;98244.97;;;12.67;71.04
48622;BME280;34421;48.944;9.460;2023-05-16T05:22:21;98236.63;;;12.75;70.94
48622;BME280;34421;48.944;9.460;2023-05-16T05:24:47;98237.94;;;12.84;71.46
48622;BME280;34421;48.944;9.460;2023-05-16T05:27:12;98233.88;;;12.93;70.47
48622;BME280;34421;48.944;9.460;2023-05-16T05:29:39;98241.91;;;13.05;70.03
48622;BME280;34421;48.944;9.460;2023-05-16T05:32:04;98244.56;;;13.17;69.70
48622;BME280;34421;48.944;9.460;2023-05-16T05:34:30;98240.66;;;13.31;69.39
48622;BME280;34421;48.944;9.460;2023-05-16T05:36:55;98242.53;;;13.42;69.20
48622;BME280;34421;48.944;9.460;2023-05-16T05:39:21;98244.25;;;13.49;68.59
48622;BME280;34421;48.944;9.460;2023-05-16T05:41:46;98245.66;;;13.51;68.45
48622;BME280;34421;48.944;9.460;2023-05-16T05:44:12;98251.00;;;13.51;68.77
48622;BME280;34421;48.944;9.460;2023-05-16T05:46:37;98254.94;;;13.49;68.46
48622;BME280;34421;48.944;9.460;2023-05-16T05:49:03;98260.44;;;13.42;68.96
48622;BME280;34421;48.944;9.460;2023-05-16T05:51:28;98265.06;;;13.35;69.57
48622;BME280;34421;48.944;9.460;2023-05-16T05:53:54;98267.53;;;13.36;69.41
48622;BME280;34421;48.944;9.460;2023-05-16T05:56:20;98267.53;;;13.36;69.37
48622;BME280;34421;48.944;9.460;2023-05-16T05:58:46;98272.41;;;13.39;69.66
48622;BME280;34421;48.944;9.460;2023-05-16T06:01:11;98274.03;;;13.40;69.62
48622;BME280;34421;48.944;9.460;2023-05-16T06:03:36;98265.06;;;13.47;69.30
48622;BME280;34421;48.944;9.460;2023-05-16T06:06:03;98267.97;;;13.57;69.15
48622;BME280;34421;48.944;9.460;2023-05-16T06:08:28;98276.94;;;13.62;69.13
48622;BME280;34421;48.944;9.460;2023-05-16T06:10:53;98276.44;;;13.77;68.99
48622;BME280;34421;48.944;9.460;2023-05-16T06:13:19;98272.53;;;13.97;68.38
48622;BME280;34421;48.944;9.460;2023-05-16T06:15:51;98269.69;;;14.15;67.88
48622;BME280;34421;48.944;9.460;2023-05-16T06:18:17;98264.81;;;14.52;67.04
48622;BME280;34421;48.944;9.460;2023-05-16T06:20:43;98270.78;;;15.05;66.91
48622;BME280;34421;48.944;9.460;2023-05-16T06:23:08;98264.78;;;15.54;64.78
48622;BME280;34421;48.944;9.460;2023-05-16T06:25:33;98268.47;;;15.86;63.93
48622;BME280;34421;48.944;9.460;2023-05-16T06:27:58;98275.41;;;16.04;63.35
48622;BME280;34421;48.944;9.460;2023-05-16T06:30:24;98274.09;;;16.07;63.32
48622;BME280;34421;48.944;9.460;2023-05-16T06:32:49;98276.03;;;16.11;63.26
48622;BME280;34421;48.944;9.460;2023-05-16T06:35:15;98276.03;;;16.11;63.83
48622;BME280;34421;48.944;9.460;2023-05-16T06:37:40;98279.88;;;16.21;62.91
48622;BME280;34421;48.944;9.460;2023-05-16T06:40:06;98282.13;;;16.29;62.74
48622;BME280;34421;48.944;9.460;2023-05-16T06:42:31;98284.25;;;16.27;62.63
48622;BME280;34421;48.944;9.460;2023-05-16T06:44:57;98288.13;;;16.36;62.99
48622;BME280;34421;48.944;9.460;2023-05-16T06:47:22;98288.94;;;16.63;62.22
48622;BME280;34421;48.944;9.460;2023-05-16T06:49:48;98280.53;;;16.82;61.32
48622;BME280;34421;48.944;9.460;2023-05-16T06:52:14;98281.97;;;16.90;61.09
48622;BME280;34421;48.944;9.460;2023-05-16T06:54:40;98280.03;;;16.85;60.74
48622;BME280;34421;48.944;9.460;2023-05-16T06:57:05;98283.22;;;16.82;60.99
48622;BME280;34421;48.944;9.460;2023-05-16T06:59:32;98285.41;;;16.85;61.11
48622;BME280;34421;48.944;9.460;2023-05-16T07:01:59;98277.00;;;16.76;61.32
48622;BME280;34421;48.944;9.460;2023-05-16T07:04:24;98282.50;;;16.64;61.76
48622;BME280;34421;48.944;9.460;2023-05-16T07:06:50;98288.28;;;16.51;61.59
48622;BME280;34421;48.944;9.460;2023-05-16T07:09:15;98289.69;;;16.32;61.75
48622;BME280;34421;48.944;9.460;2023-05-16T07:11:41;98287.19;;;16.25;61.38
48622;BME280;34421;48.944;9.460;2023-05-16T07:14:06;98293.63;;;16.02;62.45
48622;BME280;34421;48.944;9.460;2023-05-16T07:16:32;98290.56;;;15.93;61.85
48622;BME280;34421;48.944;9.460;2023-05-16T07:18:57;98288.38;;;15.90;62.59
48622;BME280;34421;48.944;9.460;2023-05-16T07:21:22;98292.09;;;16.06;61.96
48622;BME280;34421;48.944;9.460;2023-05-16T07:23:47;98286.13;;;16.26;62.18
48622;BME280;34421;48.944;9.460;2023-05-16T07:26:13;98280.09;;;16.41;61.42
48622;BME280;34421;48.944;9.460;2023-05-16T07:28:38;98283.06;;;16.39;61.21
48622;BME280;34421;48.944;9.460;2023-05-16T07:31:03;98281.19;;;16.40;61.02
48622;BME280;34421;48.944;9.460;2023-05-16T07:33:30;98278.44;;;16.35;61.46
48622;BME280;34421;48.944;9.460;2023-05-16T07:35:56;98283.56;;;16.36;61.31
48622;BME280;34421;48.944;9.460;2023-05-16T07:38:21;98280.69;;;16.43;60.58
48622;BME280;34421;48.944;9.460;2023-05-16T07:40:46;98281.13;;;16.35;60.57
48622;BME280;34421;48.944;9.460;2023-05-16T07:43:12;98285.94;;;16.33;60.52
48622;BME280;34421;48.944;9.460;2023-05-16T07:45:37;98286.91;;;16.22;60.88
48622;BME280;34421;48.944;9.460;2023-05-16T07:48:02;98286.31;;;16.20;60.71
48622;BME280;34421;48.944;9.460;2023-05-16T07:50:28;98293.81;;;16.17;60.78
48622;BME280;34421;48.944;9.460;2023-05-16T07:52:53;98301.00;;;16.12;61.28
48622;BME280;34421;48.944;9.460;2023-05-16T07:55:18;98305.44;;;16.01;60.64
48622;BME280;34421;48.944;9.460;2023-05-16T07:57:46;98305.88;;;15.93;61.12
48622;BME280;34421;48.944;9.460;2023-05-16T08:00:12;98310.63;;;15.86;61.32
48622;BME280;34421;48.944;9.460;2023-05-16T08:02:38;98309.66;;;15.75;61.12
48622;BME280;34421;48.944;9.460;2023-05-16T08:05:03;98308.78;;;15.69;61.51
48622;BME280;34421;48.944;9.460;2023-05-16T08:07:29;98307.53;;;15.60;60.56
48622;BME280;34421;48.944;9.460;2023-05-16T08:09:55;98315.47;;;15.50;61.26
48622;BME280;34421;48.944;9.460;2023-05-16T08:12:20;98316.50;;;15.49;60.47
48622;BME280;34421;48.944;9.460;2023-05-16T08:14:46;98319.34;;;15.42;61.05
48622;BME280;34421;48.944;9.460;2023-05-16T08:17:11;98327.41;;;15.42;60.75
48622;BME280;34421;48.944;9.460;2023-05-16T08:19:36;98321.72;;;15.39;60.96
48622;BME280;34421;48.944;9.460;2023-05-16T08:22:02;98325.78;;;15.41;59.91
48622;BME280;34421;48.944;9.460;2023-05-16T08:24:27;98335.72;;;15.41;60.18
48622;BME280;34421;48.944;9.460;2023-05-16T08:26:52;98330.84;;;15.38;60.72
48622;BME280;34421;48.944;9.460;2023-05-16T08:29:18;98332.94;;;15.36;60.73
48622;BME280;34421;48.944;9.460;2023-05-16T08:31:43;98336.75;;;15.40;60.95
48622;BME280;34421;48.944;9.460;2023-05-16T08:34:08;98329.84;;;15.44;60.71
48622;BME280;34421;48.944;9.460;2023-05-16T08:36:37;98336.25;;;15.43;61.39
48622;BME280;34421;48.944;9.460;2023-05-16T08:39:03;98339.59;;;15.50;61.09
48622;BME280;34421;48.944;9.460;2023-05-16T08:41:29;98334.88;;;15.57;60.85
48622;BME280;34421;48.944;9.460;2023-05-16T08:43:55;98343.00;;;15.62;60.81
48622;BME280;34421;48.944;9.460;2023-05-16T08:46:22;98344.63;;;15.63;60.54
48622;BME280;34421;48.944;9.460;2023-05-16T08:48:51;98356.91;;;15.59;60.51
48622;BME280;34421;48.944;9.460;2023-05-16T08:51:18;98356.66;;;15.61;61.10
48622;BME280;34421;48.944;9.460;2023-05-16T08:53:47;98357.41;;;15.56;61.33
48622;BME280;34421;48.944;9.460;2023-05-16T08:56:15;98358.44;;;15.55;61.24
48622;BME280;34421;48.944;9.460;2023-05-16T08:58:41;98354.78;;;15.61;61.33
48622;BME280;34421;48.944;9.460;2023-05-16T09:01:07;98356.97;;;15.64;60.99
48622;BME280;34421;48.944;9.460;2023-05-16T09:03:37;98360.34;;;15.71;60.76
48622;BME280;34421;48.944;9.460;2023-05-16T09:06:05;98360.75;;;15.80;60.66
48622;BME280;34421;48.944;9.460;2023-05-16T09:08:31;98358.09;;;15.85;60.29
48622;BME280;34421;48.944;9.460;2023-05-16T09:10:57;98354.69;;;15.90;61.13
48622;BME280;34421;48.944;9.460;2023-05-16T09:13:23;98357.47;;;15.95;61.04
48622;BME280;34421;48.944;9.460;2023-05-16T09:16:08;98359.47;;;16.05;60.59
48622;BME280;34421;48.944;9.460;2023-05-16T09:18:33;98362.47;;;16.08;60.27
48622;BME280;34421;48.944;9.460;2023-05-16T09:20:59;98366.78;;;16.09;60.22
48622;BME280;34421;48.944;9.460;2023-05-16T09:23:25;98365.03;;;16.20;60.45
48622;BME280;34421;48.944;9.460;2023-05-16T09:25:52;98357.94;;;16.31;60.28
48622;BME280;34421;48.944;9.460;2023-05-16T09:28:17;98355.22;;;16.53;59.31
48622;BME280;34421;48.944;9.460;2023-05-16T09:30:45;98350.34;;;16.72;58.59
48622;BME280;34421;48.944;9.460;2023-05-16T09:33:11;98352.06;;;16.83;58.75
48622;BME280;34421;48.944;9.460;2023-05-16T09:35:37;98346.53;;;16.95;58.15
48622;BME280;34421;48.944;9.460;2023-05-16T09:38:02;98356.53;;;16.99;58.27
48622;BME280;34421;48.944;9.460;2023-05-16T09:40:28;98355.91;;;16.87;58.35
48622;BME280;34421;48.944;9.460;2023-05-16T09:43:04;98368.81;;;16.68;58.62
48622;BME280;34421;48.944;9.460;2023-05-16T09:45:30;98375.97;;;16.57;58.83
48622;BME280;34421;48.944;9.460;2023-05-16T09:48:06;98372.66;;;16.50;59.48
48622;BME280;34421;48.944;9.460;2023-05-16T09:50:36;98382.72;;;16.38;59.83
48622;BME280;34421;48.944;9.460;2023-05-16T09:53:02;98379.16;;;16.32;59.30
48622;BME280;34421;48.944;9.460;2023-05-16T09:55:29;98373.53;;;16.34;59.49
48622;BME280;34421;48.944;9.460;2023-05-16T09:57:54;98373.13;;;16.42;59.76
48622;BME280;34421;48.944;9.460;2023-05-16T10:00:20;98371.91;;;16.55;58.76
48622;BME280;34421;48.944;9.460;2023-05-16T10:02:46;98368.34;;;16.49;58.81
48622;BME280;34421;48.944;9.460;2023-05-16T10:05:12;98361.47;;;16.58;59.39
48622;BME280;34421;48.944;9.460;2023-05-16T10:07:38;98363.72;;;16.67;58.73
48622;BME280;34421;48.944;9.460;2023-05-16T10:10:07;98359.34;;;16.60;59.41
48622;BME280;34421;48.944;9.460;2023-05-16T10:12:35;98357.53;;;16.66;58.65
48622;BME280;34421;48.944;9.460;2023-05-16T10:15:02;98353.75;;;16.67;58.72
48622;BME280;34421;48.944;9.460;2023-05-16T10:17:30;98356.91;;;16.59;58.97
48622;BME280;34421;48.944;9.460;2023-05-16T10:19:57;98355.47;;;16.51;59.66
48622;BME280;34421;48.944;9.460;2023-05-16T10:22:26;98351.13;;;16.45;59.30
48622;BME280;34421;48.944;9.460;2023-05-16T10:24:59;98352.06;;;16.34;60.00
48622;BME280;34421;48.944;9.460;2023-05-16T10:27:29;98348.72;;;16.27;60.13
48622;BME280;34421;48.944;9.460;2023-05-16T10:29:55;98353.28;;;16.26;60.07
48622;BME280;34421;48.944;9.460;2023-05-16T10:32:22;98349.09;;;16.13;60.32
48622;BME280;34421;48.944;9.460;2023-05-16T10:34:49;98359.66;;;15.98;60.89
48622;BME280;34421;48.944;9.460;2023-05-16T10:37:15;98349.78;;;16.04;61.27
48622;BME280;34421;48.944;9.460;2023-05-16T10:39:41;98361.03;;;16.23;60.58
48622;BME280;34421;48.944;9.460;2023-05-16T10:42:06;98360.19;;;16.39;60.02
48622;BME280;34421;48.944;9.460;2023-05-16T10:44:32;98353.72;;;16.40;60.24
48622;BME280;34421;48.944;9.460;2023-05-16T10:47:00;98350.09;;;16.51;59.93
48622;BME280;34421;48.944;9.460;2023-05-16T10:49:30;98348.91;;;16.64;59.29
48622;BME280;34421;48.944;9.460;2023-05-16T10:52:02;98354.56;;;16.68;58.97
48622;BME280;34421;48.944;9.460;2023-05-16T10:57:15;98359.03;;;16.57;59.45
48622;BME280;34421;48.944;9.460;2023-05-16T10:59:44;98356.91;;;16.59;59.24
48622;BME280;34421;48.944;9.460;2023-05-16T11:02:39;98356.38;;;16.62;59.97
48622;BME280;34421;48.944;9.460;2023-05-16T11:05:05;98358.19;;;16.56;59.92
48622;BME280;34421;48.944;9.460;2023-05-16T11:07:34;98356.78;;;16.49;60.52
48622;BME280;34421;48.944;9.460;2023-05-16T11:10:08;98363.84;;;16.33;60.34
48622;BME280;34421;48.944;9.460;2023-05-16T11:12:47;98369.28;;;16.16;60.06
48622;BME280;34421;48.944;9.460;2023-05-16T11:17:47;98369.69;;;15.86;61.87
48622;BME280;34421;48.944;9.460;2023-05-16T11:20:33;98374.97;;;15.81;62.44
48622;BME280;34421;48.944;9.460;2023-05-16T11:26:02;98377.03;;;15.74;62.87
48622;BME280;34421;48.944;9.460;2023-05-16T11:28:27;98375.97;;;15.75;64.31
48622;BME280;34421;48.944;9.460;2023-05-16T11:30:54;98376.03;;;15.80;64.16
48622;BME280;34421;48.944;9.460;2023-05-16T11:33:22;98377.84;;;15.74;64.87
48622;BME280;34421;48.944;9.460;2023-05-16T11:36:03;98381.34;;;15.75;63.78
48622;BME280;34421;48.944;9.460;2023-05-16T11:38:30;98386.22;;;15.78;64.16
48622;BME280;34421;48.944;9.460;2023-05-16T11:41:06;98388.50;;;15.69;64.66
48622;BME280;34421;48.944;9.460;2023-05-16T11:43:42;98393.41;;;15.60;64.61
48622;BME280;34421;48.944;9.460;2023-05-16T11:46:15;98392.06;;;15.41;64.60
48622;BME280;34421;48.944;9.460;2023-05-16T11:48:41;98400.25;;;15.34;65.68
48622;BME280;34421;48.944;9.460;2023-05-16T11:51:08;98408.44;;;15.27;66.00
48622;BME280;34421;48.944;9.460;2023-05-16T11:53:34;98403.66;;;15.30;65.95
48622;BME280;34421;48.944;9.460;2023-05-16T11:55:59;98394.06;;;15.34;65.98
48622;BME280;34421;48.944;9.460;2023-05-16T11:58:26;98407.47;;;15.34;66.04
48622;BME280;34421;48.944;9.460;2023-05-16T12:00:52;98406.84;;;15.26;66.52
48622;BME280;34421;48.944;9.460;2023-05-16T12:03:18;98411.28;;;15.21;66.53
48622;BME280;34421;48.944;9.460;2023-05-16T12:05:52;98409.81;;;15.13;66.30
48622;BME280;34421;48.944;9.460;2023-05-16T12:08:21;98420.03;;;15.16;66.48
48622;BME280;34421;48.944;9.460;2023-05-16T12:10:48;98412.91;;;15.22;66.47
48622;BME280;34421;48.944;9.460;2023-05-16T12:13:15;98412.84;;;15.34;66.29
48622;BME280;34421;48.944;9.460;2023-05-16T12:15:40;98408.41;;;15.56;65.84
48622;BME280;34421;48.944;9.460;2023-05-16T12:18:07;98403.44;;;15.82;65.10
48622;BME280;34421;48.944;9.460;2023-05-16T12:20:33;98408.59;;;16.05;65.21
48622;BME280;34421;48.944;9.460;2023-05-16T12:22:58;98407.81;;;16.27;64.34
48622;BME280;34421;48.944;9.460;2023-05-16T12:25:31;98409.03;;;16.58;64.88
48622;BME280;34421;48.944;9.460;2023-05-16T12:27:59;98407.03;;;16.70;64.47
48622;BME280;34421;48.944;9.460;2023-05-16T12:30:25;98410.63;;;16.76;63.21
48622;BME280;34421;48.944;9.460;2023-05-16T12:33:12;98409.31;;;16.78;61.93
48622;BME280;34421;48.944;9.460;2023-05-16T12:35:38;98413.59;;;16.79;62.00
48622;BME280;34421;48.944;9.460;2023-05-16T12:38:05;98423.00;;;16.77;60.62
48622;BME280;34421;48.944;9.460;2023-05-16T12:40:31;98415.59;;;16.89;59.34
48622;BME280;34421;48.944;9.460;2023-05-16T12:42:57;98413.69;;;17.12;59.72
48622;BME280;34421;48.944;9.460;2023-05-16T12:45:22;98428.34;;;17.26;59.14
48622;BME280;34421;48.944;9.460;2023-05-16T12:47:48;98419.34;;;17.42;58.29
48622;BME280;34421;48.944;9.460;2023-05-16T12:50:14;98428.44;;;17.68;58.18
48622;BME280;34421;48.944;9.460;2023-05-16T12:52:48;98429.22;;;17.96;57.60
48622;BME280;34421;48.944;9.460;2023-05-16T12:55:15;98425.16;;;17.93;56.57
48622;BME280;34421;48.944;9.460;2023-05-16T12:57:42;98423.41;;;17.77;56.78
48622;BME280;34421;48.944;9.460;2023-05-16T13:00:08;98430.56;;;17.66;56.98
48622;BME280;34421;48.944;9.460;2023-05-16T13:02:36;98421.34;;;17.57;56.42
48622;BME280;34421;48.944;9.460;2023-05-16T13:05:01;98430.78;;;17.60;56.16
48622;BME280;34421;48.944;9.460;2023-05-16T13:07:26;98431.94;;;17.69;56.01
48622;BME280;34421;48.944;9.460;2023-05-16T13:09:52;98430.19;;;17.80;55.53
48622;BME280;34421;48.944;9.460;2023-05-16T13:12:17;98432.19;;;17.94;55.34
48622;BME280;34421;48.944;9.460;2023-05-16T13:14:42;98425.81;;;17.73;55.97